Time;durP1;ratioP1;P1;durP2;ratioP2;P2;SDS_P1;SDS_P2;PMS_P1;PMS_P2;Temp;Humidity;BMP_temperature;BMP_pressure;BME280_temperature;BME280_humidity;BME280_pressure;Samples;Min_cycle;Max_cycle;Signal;HPM_P1;HPM_P2
2023/07/16 00:00:08;;;;;;;;;;;;;;;29.87;37.78;100695.38;5099210;28;19924;-53
2023/07/16 00:02:33;;;;;;;;;;;;;;;32.61;34.28;100702.75;5099267;28;19917;-51
2023/07/16 00:04:59;;;;;;;;;;;;;;;32.88;33.52;100700.38;5098961;28;19931;-53
2023/07/16 00:07:24;;;;;;;;;;;;;;;31.51;34.83;100697.63;5098750;28;19920;-51
2023/07/16 00:09:50;;;;;;;;;;;;;;;30.47;36.68;100690.72;5099136;28;19924;-53
2023/07/16 00:12:15;;;;;;;;;;;;;;;30.47;37.05;100687.97;5098408;28;19925;-55
2023/07/16 00:14:41;;;;;;;;;;;;;;;30.76;36.71;100696.53;5098635;28;19929;-52
2023/07/16 00:17:06;;;;;;;;;;;;;;;30.03;38.27;100709.47;5098609;28;19916;-54
2023/07/16 00:19:32;;;;;;;;;;;;;;;30.07;39.66;100702.16;5098766;28;19951;-55
2023/07/16 00:21:57;;;;;;;;;;;;;;;30.44;39.10;100701.59;5098484;28;20791;-51
2023/07/16 00:24:23;;;;;;;;;;;;;;;30.38;39.48;100706.50;5098245;28;19924;-49
2023/07/16 00:26:48;;;;;;;;;;;;;;;30.26;40.46;100703.69;5101336;28;19936;-51
2023/07/16 00:29:14;;;;;;;;;;;;;;;30.31;40.90;100692.44;5098480;28;19923;-53
2023/07/16 00:31:39;;;;;;;;;;;;;;;30.41;40.56;100700.31;5098306;28;19977;-52
2023/07/16 00:34:05;;;;;;;;;;;;;;;30.70;40.52;100698.72;5100224;28;19931;-53
2023/07/16 00:36:31;;;;;;;;;;;;;;;30.48;41.25;100697.84;5081201;28;20010;-54
2023/07/16 00:38:57;;;;;;;;;;;;;;;30.36;41.36;100689.47;5119819;28;19955;-51
2023/07/16 00:41:22;;;;;;;;;;;;;;;30.35;40.86;100700.88;5080403;28;19917;-49
2023/07/16 00:43:50;;;;;;;;;;;;;;;29.91;42.06;100696.38;5106012;28;19978;-48
2023/07/16 00:46:15;;;;;;;;;;;;;;;29.39;43.04;100692.59;5068317;28;19920;-53
2023/07/16 00:48:41;;;;;;;;;;;;;;;28.74;43.59;100707.03;5098196;28;19924;-49
2023/07/16 00:51:08;;;;;;;;;;;;;;;29.43;41.72;100701.88;5114145;28;19916;-50
2023/07/16 00:53:35;;;;;;;;;;;;;;;29.52;41.00;100692.75;5102901;28;19923;-55
2023/07/16 00:56:00;;;;;;;;;;;;;;;28.85;42.42;100702.06;5110180;28;19923;-53
2023/07/16 00:58:26;;;;;;;;;;;;;;;28.89;42.50;100700.25;5097881;28;19972;-49
2023/07/16 01:00:54;;;;;;;;;;;;;;;29.07;43.14;100707.72;5098016;28;19917;-47
2023/07/16 01:03:19;;;;;;;;;;;;;;;28.63;44.25;100708.50;5113986;28;19927;-48
2023/07/16 01:05:47;;;;;;;;;;;;;;;28.51;45.10;100702.78;5102147;28;19942;-48
2023/07/16 01:08:14;;;;;;;;;;;;;;;28.99;45.00;100706.59;5097563;28;19938;-50
2023/07/16 01:10:40;;;;;;;;;;;;;;;29.47;44.60;100699.25;5097773;28;19938;-52
2023/07/16 01:13:06;;;;;;;;;;;;;;;29.13;45.37;100711.94;5063630;28;19916;-49
2023/07/16 01:15:31;;;;;;;;;;;;;;;29.70;44.55;100701.78;5098705;28;19916;-49
2023/07/16 01:17:59;;;;;;;;;;;;;;;29.50;44.95;100706.84;5097531;28;19942;-53
2023/07/16 01:20:25;;;;;;;;;;;;;;;28.77;46.98;100714.63;5097414;28;19924;-52
2023/07/16 01:23:03;;;;;;;;;;;;;;;28.95;45.87;100711.94;5079775;28;19917;-50
2023/07/16 01:25:43;;;;;;;;;;;;;;;29.39;44.25;100702.81;5079853;28;19920;-51
2023/07/16 01:28:26;;;;;;;;;;;;;;;28.90;45.09;100714.84;5116280;28;19916;-50
2023/07/16 01:30:55;;;;;;;;;;;;;;;29.44;43.42;100710.94;5097694;28;19916;-52
2023/07/16 01:33:21;;;;;;;;;;;;;;;29.29;43.08;100704.75;5113057;28;19947;-49
2023/07/16 01:35:48;;;;;;;;;;;;;;;28.34;44.83;100704.38;5100930;28;19979;-51
2023/07/16 01:38:15;;;;;;;;;;;;;;;28.24;45.39;100704.69;5116730;28;19928;-48
2023/07/16 01:40:41;;;;;;;;;;;;;;;29.50;42.76;100700.56;5113549;28;19944;-50
2023/07/16 01:43:07;;;;;;;;;;;;;;;28.74;44.27;100696.03;5097199;28;19923;-50
2023/07/16 01:45:32;;;;;;;;;;;;;;;28.77;44.08;100703.63;5095550;28;19920;-50
2023/07/16 01:48:13;;;;;;;;;;;;;;;28.57;44.95;100707.00;5099958;28;19942;-52
2023/07/16 01:50:39;;;;;;;;;;;;;;;28.74;44.54;100706.25;5071538;28;19944;-53
2023/07/16 01:53:04;;;;;;;;;;;;;;;29.13;43.56;100715.47;5096846;28;19924;-49
2023/07/16 01:55:30;;;;;;;;;;;;;;;28.43;45.95;100710.72;5096872;28;19938;-52
2023/07/16 01:57:56;;;;;;;;;;;;;;;29.19;44.64;100703.19;5080528;28;19943;-50
2023/07/16 02:00:21;;;;;;;;;;;;;;;28.70;45.67;100705.25;5078841;28;19920;-54
2023/07/16 02:02:50;;;;;;;;;;;;;;;28.54;46.79;100696.66;5096811;28;19921;-51
2023/07/16 02:05:15;;;;;;;;;;;;;;;28.78;46.00;100707.19;5096611;28;19966;-52
2023/07/16 02:07:41;;;;;;;;;;;;;;;28.47;46.59;100706.19;5124441;28;19916;-52
2023/07/16 02:10:07;;;;;;;;;;;;;;;28.71;46.69;100702.19;5100302;28;19950;-54
2023/07/16 02:12:32;;;;;;;;;;;;;;;28.73;46.88;100708.16;5112321;28;19917;-54
2023/07/16 02:14:58;;;;;;;;;;;;;;;28.73;47.09;100707.38;5075572;28;19984;-52
2023/07/16 02:17:23;;;;;;;;;;;;;;;30.30;42.18;100699.09;5094156;28;19976;-54
2023/07/16 02:19:49;;;;;;;;;;;;;;;30.66;42.05;100706.00;5096675;28;19920;-54
2023/07/16 02:22:14;;;;;;;;;;;;;;;30.05;42.51;100707.19;5110389;28;19940;-55
2023/07/16 02:24:39;;;;;;;;;;;;;;;30.19;42.74;100713.25;5112375;28;19938;-52
2023/07/16 02:27:05;;;;;;;;;;;;;;;30.13;42.92;100722.88;5096049;28;19926;-53
2023/07/16 02:29:32;;;;;;;;;;;;;;;29.62;44.24;100707.00;5096808;28;19984;-54
2023/07/16 02:31:58;;;;;;;;;;;;;;;30.71;42.22;100718.81;5096340;28;19920;-53
2023/07/16 02:34:23;;;;;;;;;;;;;;;30.36;42.96;100711.56;5100717;28;19939;-54
2023/07/16 02:36:49;;;;;;;;;;;;;;;30.60;43.01;100715.63;5101974;28;19919;-54
2023/07/16 02:39:14;;;;;;;;;;;;;;;31.28;42.09;100722.91;5112064;28;19917;-53
2023/07/16 02:41:41;;;;;;;;;;;;;;;30.92;42.69;100718.00;5078269;28;19959;-53
2023/07/16 02:44:06;;;;;;;;;;;;;;;31.66;41.30;100717.47;5097065;28;19917;-53
2023/07/16 02:46:32;;;;;;;;;;;;;;;30.61;41.53;100723.59;5080727;28;19920;-52
2023/07/16 02:48:57;;;;;;;;;;;;;;;29.96;43.45;100709.94;5095870;28;20763;-55
2023/07/16 02:51:23;;;;;;;;;;;;;;;30.12;43.40;100712.97;5095539;28;19923;-53
2023/07/16 02:53:48;;;;;;;;;;;;;;;30.14;43.45;100727.25;5078448;28;19938;-51
2023/07/16 02:56:14;;;;;;;;;;;;;;;30.24;43.62;100730.78;5095692;28;19917;-52
2023/07/16 02:58:39;;;;;;;;;;;;;;;31.37;42.16;100730.28;5097406;28;19920;-54
2023/07/16 03:01:04;;;;;;;;;;;;;;;31.25;42.95;100723.59;5078238;28;19939;-52
2023/07/16 03:03:29;;;;;;;;;;;;;;;31.83;41.61;100733.91;5113369;28;19924;-50
2023/07/16 03:05:55;;;;;;;;;;;;;;;30.71;44.17;100718.81;5104302;28;19921;-48
2023/07/16 03:08:20;;;;;;;;;;;;;;;30.93;43.81;100730.66;5107301;28;19921;-53
2023/07/16 03:10:46;;;;;;;;;;;;;;;30.04;48.36;100738.66;5099291;28;19917;-48
2023/07/16 03:13:11;;;;;;;;;;;;;;;29.86;48.36;100729.59;5095250;28;19948;-50
2023/07/16 03:15:37;;;;;;;;;;;;;;;29.86;49.66;100727.66;5099821;28;19917;-53
2023/07/16 03:18:03;;;;;;;;;;;;;;;29.95;49.53;100735.91;5077964;28;19917;-49
2023/07/16 03:20:29;;;;;;;;;;;;;;;29.86;49.35;100749.72;5077355;28;19920;-48
2023/07/16 03:22:54;;;;;;;;;;;;;;;29.46;50.74;100741.69;5111382;28;19916;-49
2023/07/16 03:25:20;;;;;;;;;;;;;;;28.96;51.02;100741.06;5111131;28;19925;-50
2023/07/16 03:27:45;;;;;;;;;;;;;;;29.12;50.24;100744.13;5078315;28;19939;-49
2023/07/16 03:30:11;;;;;;;;;;;;;;;29.20;48.75;100739.75;5076799;28;19995;-50
2023/07/16 03:32:37;;;;;;;;;;;;;;;30.18;46.13;100730.16;5111357;28;19923;-51
2023/07/16 03:35:03;;;;;;;;;;;;;;;29.32;47.43;100728.91;5077340;28;19931;-53
2023/07/16 03:37:28;;;;;;;;;;;;;;;28.87;47.77;100743.00;5077566;28;19916;-50
2023/07/16 03:39:54;;;;;;;;;;;;;;;29.09;47.06;100749.50;5077487;28;19917;-48
2023/07/16 03:42:19;;;;;;;;;;;;;;;29.60;44.71;100736.81;5094974;28;19968;-49
2023/07/16 03:44:45;;;;;;;;;;;;;;;29.57;44.88;100731.97;5095064;28;19925;-53
2023/07/16 03:47:11;;;;;;;;;;;;;;;29.46;44.48;100741.69;5077518;28;19943;-50
2023/07/16 03:49:36;;;;;;;;;;;;;;;29.25;44.44;100750.59;5113545;28;19924;-52
2023/07/16 03:52:02;;;;;;;;;;;;;;;29.23;44.48;100761.13;5088400;28;19913;-50
2023/07/16 03:54:27;;;;;;;;;;;;;;;28.97;44.69;100759.19;5094909;28;20049;-49
2023/07/16 03:56:54;;;;;;;;;;;;;;;29.53;42.62;100779.78;5095061;28;19917;-50
2023/07/16 03:59:19;;;;;;;;;;;;;;;29.38;43.22;100770.03;5111085;28;19975;-55
2023/07/16 04:01:45;;;;;;;;;;;;;;;29.67;42.36;100768.56;5111180;28;19938;-51
2023/07/16 04:04:11;;;;;;;;;;;;;;;29.40;43.44;100776.03;5077245;28;19921;-51
2023/07/16 04:06:36;;;;;;;;;;;;;;;29.04;44.32;100770.53;5095166;28;19921;-52
2023/07/16 04:09:02;;;;;;;;;;;;;;;28.94;45.32;100773.59;5094782;28;19943;-51
2023/07/16 04:11:27;;;;;;;;;;;;;;;28.87;45.97;100795.31;5094841;28;19931;-48
2023/07/16 04:13:53;;;;;;;;;;;;;;;29.17;46.01;100799.03;5094546;28;19916;-47
2023/07/16 04:16:18;;;;;;;;;;;;;;;29.22;45.50;100786.25;5094715;28;19916;-48
2023/07/16 04:18:44;;;;;;;;;;;;;;;29.95;45.02;100796.53;5106285;28;19923;-51
2023/07/16 04:21:09;;;;;;;;;;;;;;;29.17;46.39;100809.25;5094575;28;19924;-50
2023/07/16 04:23:35;;;;;;;;;;;;;;;29.63;45.54;100804.22;5094638;28;19916;-48
2023/07/16 04:26:00;;;;;;;;;;;;;;;29.61;46.15;100795.47;5094520;28;19921;-51
2023/07/16 04:28:26;;;;;;;;;;;;;;;30.15;44.03;100802.50;5102826;28;19916;-48
2023/07/16 04:30:51;;;;;;;;;;;;;;;30.60;41.62;100803.91;5094724;28;19916;-48
2023/07/16 04:33:19;;;;;;;;;;;;;;;30.72;41.20;100801.28;5094439;28;19947;-49
2023/07/16 04:35:44;;;;;;;;;;;;;;;30.20;41.59;100802.31;5094644;28;19985;-53
2023/07/16 04:38:09;;;;;;;;;;;;;;;30.68;41.17;100816.91;5099316;28;19920;-50
2023/07/16 04:40:35;;;;;;;;;;;;;;;29.29;42.21;100811.34;5094555;28;19917;-51
2023/07/16 04:43:00;;;;;;;;;;;;;;;29.50;42.81;100807.97;5079947;28;19943;-52
2023/07/16 04:45:26;;;;;;;;;;;;;;;29.57;42.62;100814.63;5109515;28;19951;-49
2023/07/16 04:47:52;;;;;;;;;;;;;;;29.79;41.72;100814.72;5099569;28;19947;-53
2023/07/16 04:50:17;;;;;;;;;;;;;;;30.23;41.22;100817.41;5097960;28;19965;-53
2023/07/16 04:52:42;;;;;;;;;;;;;;;30.26;40.98;100811.22;5098004;28;19924;-50
2023/07/16 04:55:08;;;;;;;;;;;;;;;29.70;41.50;100818.31;5097714;28;19983;-50
2023/07/16 04:57:33;;;;;;;;;;;;;;;30.16;40.66;100818.72;5098415;28;19916;-53
2023/07/16 04:59:59;;;;;;;;;;;;;;;28.97;42.31;100829.97;5110144;28;19924;-52
2023/07/16 05:02:25;;;;;;;;;;;;;;;29.80;41.42;100832.88;5097587;28;19917;-51
2023/07/16 05:04:50;;;;;;;;;;;;;;;29.59;41.24;100831.63;5098053;28;19917;-52
2023/07/16 05:07:16;;;;;;;;;;;;;;;29.83;40.77;100833.06;5097700;28;19965;-50
2023/07/16 05:09:44;;;;;;;;;;;;;;;29.33;41.52;100826.91;5107024;28;19928;-53
2023/07/16 05:12:09;;;;;;;;;;;;;;;29.67;40.46;100829.19;5097398;28;19920;-51
2023/07/16 05:14:45;;;;;;;;;;;;;;;29.40;40.61;100859.47;5097938;28;20004;-49
2023/07/16 05:17:11;;;;;;;;;;;;;;;29.96;39.56;100828.47;5097652;28;19980;-49
2023/07/16 05:19:37;;;;;;;;;;;;;;;29.56;39.95;100845.22;5080385;28;19917;-51
2023/07/16 05:22:02;;;;;;;;;;;;;;;30.19;39.08;100848.38;5097486;28;19924;-50
2023/07/16 05:24:28;;;;;;;;;;;;;;;29.98;39.06;100834.47;5097614;28;19921;-49
2023/07/16 05:26:54;;;;;;;;;;;;;;;30.25;39.11;100837.97;5097285;28;20013;-52
2023/07/16 05:29:20;;;;;;;;;;;;;;;30.11;38.96;100849.22;5100556;28;19927;-48
2023/07/16 05:31:46;;;;;;;;;;;;;;;30.13;38.85;100851.66;5097378;28;19955;-51
2023/07/16 05:34:12;;;;;;;;;;;;;;;30.57;38.26;100855.06;5097330;28;19916;-48
2023/07/16 05:36:38;;;;;;;;;;;;;;;30.29;38.73;100861.00;5097452;28;20027;-52
2023/07/16 05:39:03;;;;;;;;;;;;;;;30.10;39.23;100869.66;5097916;28;19920;-53
2023/07/16 05:41:28;;;;;;;;;;;;;;;29.93;39.41;100869.66;5097011;28;19912;-54
2023/07/16 05:43:54;;;;;;;;;;;;;;;30.90;37.74;100859.13;5097146;28;19924;-52
2023/07/16 05:46:19;;;;;;;;;;;;;;;29.86;39.17;100867.41;5096922;28;19920;-51
2023/07/16 05:48:45;;;;;;;;;;;;;;;29.32;40.30;100858.34;5097181;28;19990;-50
2023/07/16 05:51:11;;;;;;;;;;;;;;;29.37;40.50;100876.63;5112845;28;19924;-50
2023/07/16 05:53:36;;;;;;;;;;;;;;;29.53;39.35;100901.81;5096336;28;19923;-49
2023/07/16 05:56:02;;;;;;;;;;;;;;;29.80;39.65;100882.50;5099991;28;19951;-52
2023/07/16 05:58:27;;;;;;;;;;;;;;;29.62;40.44;100886.06;5097028;28;19966;-54
2023/07/16 06:00:53;;;;;;;;;;;;;;;29.87;39.90;100880.03;5096866;28;19982;-48
2023/07/16 06:03:19;;;;;;;;;;;;;;;30.52;39.22;100890.31;5096889;28;19916;-48
2023/07/16 06:05:45;;;;;;;;;;;;;;;29.33;40.55;100884.75;5096978;28;19920;-49
2023/07/16 06:08:11;;;;;;;;;;;;;;;29.83;40.28;100893.69;5096622;28;19917;-52
2023/07/16 06:10:37;;;;;;;;;;;;;;;30.10;39.64;100896.41;5096577;28;19916;-51
2023/07/16 06:13:03;;;;;;;;;;;;;;;30.06;40.10;100885.25;5096538;28;19916;-52
2023/07/16 06:15:28;;;;;;;;;;;;;;;30.19;39.44;100889.75;5096604;28;19912;-52
2023/07/16 06:17:54;;;;;;;;;;;;;;;30.38;39.41;100883.03;5096642;28;19939;-47
2023/07/16 06:20:20;;;;;;;;;;;;;;;29.79;39.66;100881.69;5097286;28;19926;-52
2023/07/16 06:22:45;;;;;;;;;;;;;;;30.27;39.41;100873.53;5096628;28;19943;-49
2023/07/16 06:25:11;;;;;;;;;;;;;;;30.92;37.85;100887.22;5103634;28;19916;-50
2023/07/16 06:27:36;;;;;;;;;;;;;;;30.43;38.75;100893.88;5096347;28;19916;-51
2023/07/16 06:30:02;;;;;;;;;;;;;;;29.61;40.20;100898.22;5096048;28;19939;-48
2023/07/16 06:32:27;;;;;;;;;;;;;;;30.75;38.70;100891.69;5078775;28;19995;-53
2023/07/16 06:34:53;;;;;;;;;;;;;;;31.20;37.90;100895.03;5095859;28;19945;-51
2023/07/16 06:37:18;;;;;;;;;;;;;;;30.44;38.66;100920.34;5096266;28;19917;-50
2023/07/16 06:39:44;;;;;;;;;;;;;;;30.03;39.59;100907.97;5095969;28;19916;-49
2023/07/16 06:42:09;;;;;;;;;;;;;;;30.51;38.89;100903.28;5096138;28;19920;-51
2023/07/16 06:44:35;;;;;;;;;;;;;;;30.87;38.49;100915.81;5112107;28;19983;-52
2023/07/16 06:47:01;;;;;;;;;;;;;;;29.22;40.62;100919.22;5095827;28;19956;-47
2023/07/16 06:49:26;;;;;;;;;;;;;;;30.01;40.08;100912.97;5095777;28;19980;-48
2023/07/16 06:51:52;;;;;;;;;;;;;;;29.92;39.75;100921.25;5095753;28;19916;-49
2023/07/16 06:54:17;;;;;;;;;;;;;;;30.13;40.05;100913.13;5095429;28;19923;-49
2023/07/16 06:56:43;;;;;;;;;;;;;;;30.65;39.26;100910.56;5108081;28;19976;-51
2023/07/16 06:59:09;;;;;;;;;;;;;;;30.47;39.24;100910.59;5077868;28;19927;-50
2023/07/16 07:01:34;;;;;;;;;;;;;;;31.28;38.40;100909.94;5103435;28;19920;-47
2023/07/16 07:04:00;;;;;;;;;;;;;;;30.99;38.85;100923.41;5095274;28;20026;-51
2023/07/16 07:06:25;;;;;;;;;;;;;;;31.02;38.78;100931.00;5091972;28;19951;-52
2023/07/16 07:08:50;;;;;;;;;;;;;;;30.41;39.05;100945.03;5095458;28;19980;-51
2023/07/16 07:11:16;;;;;;;;;;;;;;;31.12;39.04;100929.00;5095223;28;19917;-50
2023/07/16 07:13:42;;;;;;;;;;;;;;;31.98;37.80;100925.97;5081801;28;19921;-51
2023/07/16 07:16:07;;;;;;;;;;;;;;;30.61;39.14;100951.81;5101446;28;19916;-52
2023/07/16 07:18:32;;;;;;;;;;;;;;;31.29;38.63;100941.94;5082084;28;19924;-51
2023/07/16 07:20:58;;;;;;;;;;;;;;;31.46;38.51;100938.25;5104402;28;19948;-49
2023/07/16 07:23:24;;;;;;;;;;;;;;;31.00;39.01;100938.81;5095111;28;19923;-53
2023/07/16 07:25:50;;;;;;;;;;;;;;;30.56;38.99;100980.34;5095234;28;19999;-51
2023/07/16 07:28:16;;;;;;;;;;;;;;;31.08;38.47;100950.13;5092234;28;19913;-50
2023/07/16 07:30:42;;;;;;;;;;;;;;;31.08;38.87;100975.81;5093643;28;19928;-52
2023/07/16 07:33:07;;;;;;;;;;;;;;;31.51;37.43;100956.59;5088828;28;19920;-52
2023/07/16 07:35:33;;;;;;;;;;;;;;;31.69;37.72;100948.97;5089565;28;19944;-54
2023/07/16 07:37:58;;;;;;;;;;;;;;;31.05;38.59;100968.19;5101278;28;19912;-53
2023/07/16 07:40:24;;;;;;;;;;;;;;;30.99;39.43;100950.19;5097178;28;20041;-49
2023/07/16 07:42:50;;;;;;;;;;;;;;;31.89;37.55;100950.09;5077377;28;19931;-52
2023/07/16 07:45:15;;;;;;;;;;;;;;;31.22;38.65;100944.41;5098218;28;19916;-50
2023/07/16 07:47:41;;;;;;;;;;;;;;;32.62;36.78;100970.06;5099788;28;19917;-52
2023/07/16 07:50:07;;;;;;;;;;;;;;;31.99;37.80;100962.72;5095057;28;19928;-52
2023/07/16 07:52:32;;;;;;;;;;;;;;;32.66;36.85;100971.00;5094706;28;19944;-48
2023/07/16 07:54:58;;;;;;;;;;;;;;;32.68;36.72;100973.44;5094892;28;19920;-50
2023/07/16 07:57:23;;;;;;;;;;;;;;;31.64;38.33;100963.00;5100108;28;19988;-50
2023/07/16 07:59:51;;;;;;;;;;;;;;;31.79;37.71;100976.22;5097361;28;19920;-50
2023/07/16 08:02:18;;;;;;;;;;;;;;;31.41;39.22;100983.44;5100158;28;19938;-50
2023/07/16 08:04:45;;;;;;;;;;;;;;;31.55;38.34;100971.34;5094942;28;19923;-51
2023/07/16 08:07:10;;;;;;;;;;;;;;;32.75;37.00;100979.19;5095687;28;19925;-50
2023/07/16 08:09:37;;;;;;;;;;;;;;;32.03;37.83;100980.22;5094944;28;19916;-51
2023/07/16 08:12:03;;;;;;;;;;;;;;;32.82;37.15;100981.41;5094631;28;19917;-52
2023/07/16 08:14:28;;;;;;;;;;;;;;;32.84;36.21;101013.13;5094409;28;19920;-51
2023/07/16 08:16:55;;;;;;;;;;;;;;;32.57;36.83;101012.59;5095519;28;19923;-49
2023/07/16 08:19:21;;;;;;;;;;;;;;;32.54;36.17;100995.91;5098720;28;19920;-49
2023/07/16 08:21:47;;;;;;;;;;;;;;;32.81;36.88;100988.88;5098301;28;19916;-53
2023/07/16 08:24:12;;;;;;;;;;;;;;;33.10;36.38;100994.59;5098416;28;19916;-51
2023/07/16 08:26:38;;;;;;;;;;;;;;;32.23;37.16;101016.50;5098506;28;19921;-51
2023/07/16 08:29:03;;;;;;;;;;;;;;;32.94;36.24;101002.78;5098745;28;19923;-51
2023/07/16 08:31:29;;;;;;;;;;;;;;;32.23;37.04;100997.16;5097401;28;19916;-49
2023/07/16 08:33:54;;;;;;;;;;;;;;;32.62;36.75;101000.53;5098075;28;20392;-52
2023/07/16 08:36:20;;;;;;;;;;;;;;;32.97;36.77;101013.16;5098378;28;19920;-53
2023/07/16 08:38:45;;;;;;;;;;;;;;;33.45;35.82;101006.03;5097427;28;19980;-48
2023/07/16 08:41:11;;;;;;;;;;;;;;;33.29;35.33;101024.47;5098028;28;19939;-49
2023/07/16 08:43:37;;;;;;;;;;;;;;;32.78;36.37;101011.72;5098394;28;19979;-48
2023/07/16 08:46:02;;;;;;;;;;;;;;;33.19;35.55;101022.97;5080603;28;19920;-50
2023/07/16 08:48:28;;;;;;;;;;;;;;;32.59;36.48;101003.97;5098138;28;19920;-53
2023/07/16 08:50:55;;;;;;;;;;;;;;;33.60;35.07;101010.03;5098145;28;19917;-50
2023/07/16 08:53:20;;;;;;;;;;;;;;;32.65;36.07;101021.19;5098027;28;19926;-54
2023/07/16 08:55:47;;;;;;;;;;;;;;;32.95;35.87;101021.81;5096491;28;19983;-50
2023/07/16 08:58:14;;;;;;;;;;;;;;;33.84;34.80;101047.19;5078682;28;19917;-51
2023/07/16 09:00:42;;;;;;;;;;;;;;;33.32;35.51;101038.44;5099929;28;19920;-50
2023/07/16 09:03:08;;;;;;;;;;;;;;;33.42;35.32;101023.34;5080522;28;19916;-53
2023/07/16 09:05:34;;;;;;;;;;;;;;;33.10;35.92;101034.19;5097966;28;19954;-52
2023/07/16 09:08:00;;;;;;;;;;;;;;;32.78;36.58;101041.41;5098251;28;19920;-52
2023/07/16 09:10:25;;;;;;;;;;;;;;;32.31;36.85;101049.63;5080090;28;19927;-50
2023/07/16 09:12:51;;;;;;;;;;;;;;;32.57;36.81;101051.34;5097831;28;19916;-52
2023/07/16 09:15:19;;;;;;;;;;;;;;;32.44;37.12;101044.97;5097663;28;19951;-49
2023/07/16 09:17:48;;;;;;;;;;;;;;;32.61;36.04;101051.50;5097935;28;19955;-55
2023/07/16 09:20:15;;;;;;;;;;;;;;;32.77;36.60;101048.88;5097507;28;19952;-52
2023/07/16 09:22:40;;;;;;;;;;;;;;;33.46;35.46;101059.50;5109359;28;19920;-55
2023/07/16 09:25:06;;;;;;;;;;;;;;;33.77;35.46;101049.75;5100987;28;19916;-53
2023/07/16 09:27:31;;;;;;;;;;;;;;;34.03;34.97;101054.09;5097382;28;19920;-52
2023/07/16 09:29:59;;;;;;;;;;;;;;;34.13;34.97;101056.34;5096239;28;19943;-49
2023/07/16 09:32:40;;;;;;;;;;;;;;;34.36;34.47;101058.56;5105317;28;19984;-49
2023/07/16 09:35:07;;;;;;;;;;;;;;;33.66;34.89;101048.59;5097303;28;19950;-47
2023/07/16 09:37:33;;;;;;;;;;;;;;;33.96;34.94;101053.91;5097397;28;19916;-48
2023/07/16 09:39:59;;;;;;;;;;;;;;;32.93;36.24;101051.81;5112953;28;19916;-50
2023/07/16 09:42:24;;;;;;;;;;;;;;;32.85;36.35;101059.03;5102262;28;19916;-48
2023/07/16 09:44:52;;;;;;;;;;;;;;;32.21;37.37;101066.66;5107134;28;19920;-49
2023/07/16 09:47:18;;;;;;;;;;;;;;;32.53;36.82;101080.09;5096787;28;19979;-49
2023/07/16 09:49:45;;;;;;;;;;;;;;;32.64;36.73;101058.28;5079580;28;19920;-49
2023/07/16 09:52:11;;;;;;;;;;;;;;;32.89;37.10;101073.03;5098416;28;19923;-54
2023/07/16 09:54:37;;;;;;;;;;;;;;;33.47;36.00;101074.97;5103724;28;19916;-50
2023/07/16 09:57:04;;;;;;;;;;;;;;;32.94;36.48;101063.72;5097119;28;19916;-51
2023/07/16 09:59:31;;;;;;;;;;;;;;;34.21;35.17;101073.22;5096685;28;19955;-50
2023/07/16 10:01:57;;;;;;;;;;;;;;;33.62;35.55;101076.22;5096713;28;19916;-53
2023/07/16 10:04:23;;;;;;;;;;;;;;;33.85;35.71;101070.97;5099881;28;19923;-52
2023/07/16 10:06:49;;;;;;;;;;;;;;;34.05;35.15;101082.28;5096584;28;19920;-50
2023/07/16 10:09:30;;;;;;;;;;;;;;;34.69;34.47;101085.28;5097480;28;19916;-52
2023/07/16 10:12:06;;;;;;;;;;;;;;;34.34;35.12;101085.88;5099041;28;19928;-50
2023/07/16 10:14:38;;;;;;;;;;;;;;;33.01;36.16;101098.00;5079985;28;19935;-51
2023/07/16 10:17:05;;;;;;;;;;;;;;;33.77;35.55;101094.13;5091790;28;19939;-50
2023/07/16 10:19:31;;;;;;;;;;;;;;;33.78;35.70;101109.59;5087748;28;19942;-50
2023/07/16 10:21:56;;;;;;;;;;;;;;;33.52;35.79;101096.91;5097683;28;19916;-51
2023/07/16 10:24:27;;;;;;;;;;;;;;;33.77;35.54;101109.94;5103242;28;19915;-49
2023/07/16 10:26:52;;;;;;;;;;;;;;;33.66;35.71;101098.50;5099714;28;19921;-50
2023/07/16 10:29:18;;;;;;;;;;;;;;;32.88;35.85;101107.44;5095659;28;19916;-50
2023/07/16 10:31:44;;;;;;;;;;;;;;;33.58;35.71;101092.75;5095805;28;19997;-49
2023/07/16 10:34:11;;;;;;;;;;;;;;;32.68;36.57;101111.84;5100422;28;19930;-52
2023/07/16 10:36:37;;;;;;;;;;;;;;;31.51;38.73;101119.63;5081928;28;19925;-51
2023/07/16 10:39:04;;;;;;;;;;;;;;;33.86;36.14;101119.75;5096092;28;19939;-53
2023/07/16 10:41:30;;;;;;;;;;;;;;;32.96;36.51;101125.91;5094887;28;19916;-53
2023/07/16 10:43:56;;;;;;;;;;;;;;;32.96;36.85;101117.59;5095826;28;19921;-50
2023/07/16 10:46:21;;;;;;;;;;;;;;;33.37;36.10;101114.19;5095601;28;19932;-55
2023/07/16 10:48:47;;;;;;;;;;;;;;;33.41;36.05;101131.75;5095362;28;20001;-51
2023/07/16 10:51:14;;;;;;;;;;;;;;;33.71;35.29;101139.88;5095343;28;19916;-55
2023/07/16 10:53:43;;;;;;;;;;;;;;;33.54;36.26;101129.81;5110565;28;19916;-55
2023/07/16 10:56:09;;;;;;;;;;;;;;;33.90;35.55;101131.75;5097120;28;19923;-53
2023/07/16 10:58:36;;;;;;;;;;;;;;;33.38;36.59;101129.66;5101415;28;19916;-53
2023/07/16 11:01:01;;;;;;;;;;;;;;;33.44;36.62;101137.44;5094200;28;19917;-53
2023/07/16 11:03:27;;;;;;;;;;;;;;;33.18;36.76;101151.56;5095616;28;19923;-54
2023/07/16 11:05:52;;;;;;;;;;;;;;;32.24;37.48;101150.91;5095474;28;19921;-52
2023/07/16 11:08:24;;;;;;;;;;;;;;;32.68;37.81;101145.06;5095383;28;19917;-53
2023/07/16 11:10:54;;;;;;;;;;;;;;;32.29;38.77;101148.75;5094520;28;19930;-49
2023/07/16 11:13:20;;;;;;;;;;;;;;;31.77;39.57;101174.78;5095140;28;19951;-49
2023/07/16 11:15:45;;;;;;;;;;;;;;;32.42;39.56;101155.19;5087197;28;19924;-49
2023/07/16 11:18:11;;;;;;;;;;;;;;;34.30;36.94;101149.63;5086589;28;19976;-52
2023/07/16 11:20:39;;;;;;;;;;;;;;;35.08;35.99;101153.41;5094473;28;21218;-53
2023/07/16 11:23:04;;;;;;;;;;;;;;;33.97;36.42;101153.38;5095230;28;19916;-52
2023/07/16 11:25:30;;;;;;;;;;;;;;;34.53;36.11;101162.19;5094771;28;19927;-51
2023/07/16 11:27:56;;;;;;;;;;;;;;;35.70;34.79;101162.09;5095345;28;19924;-52
2023/07/16 11:30:25;;;;;;;;;;;;;;;34.96;34.97;101180.03;5094596;28;19943;-51
2023/07/16 11:32:50;;;;;;;;;;;;;;;35.05;34.74;101160.47;5095167;28;19951;-52
2023/07/16 11:35:17;;;;;;;;;;;;;;;35.80;33.35;101160.75;5094647;28;19927;-48
2023/07/16 11:37:43;;;;;;;;;;;;;;;36.43;33.36;101172.84;5094746;28;19924;-53
2023/07/16 11:40:10;;;;;;;;;;;;;;;35.17;34.60;101165.13;5094491;28;19917;-49
2023/07/16 11:42:37;;;;;;;;;;;;;;;34.66;35.13;101174.88;5101559;28;19916;-56
2023/07/16 11:45:03;;;;;;;;;;;;;;;33.47;36.42;101177.53;5095147;28;19938;-52
2023/07/16 11:47:28;;;;;;;;;;;;;;;33.50;36.69;101162.16;5094957;28;19964;-54
2023/07/16 11:49:54;;;;;;;;;;;;;;;33.30;37.47;101182.09;5094493;28;19916;-56
2023/07/16 11:52:29;;;;;;;;;;;;;;;33.69;36.60;101175.47;5076462;28;19944;-55
2023/07/16 11:54:56;;;;;;;;;;;;;;;33.42;36.74;101183.25;5097638;28;19916;-53
2023/07/16 11:57:23;;;;;;;;;;;;;;;32.91;37.98;101216.72;5098863;28;19916;-55
2023/07/16 11:59:48;;;;;;;;;;;;;;;31.72;39.55;101227.47;5094150;28;19917;-52
2023/07/16 12:02:14;;;;;;;;;;;;;;;33.43;39.90;101195.97;5076621;28;19924;-55
2023/07/16 12:04:40;;;;;;;;;;;;;;;34.54;37.58;101205.44;5094742;28;19920;-53
2023/07/16 12:07:06;;;;;;;;;;;;;;;35.56;36.11;101207.06;5094606;28;19920;-54
2023/07/16 12:09:31;;;;;;;;;;;;;;;37.75;33.56;101210.34;5094858;28;19923;-51
2023/07/16 12:11:57;;;;;;;;;;;;;;;38.20;32.39;101216.22;5110531;28;19916;-52
2023/07/16 12:14:22;;;;;;;;;;;;;;;39.64;30.92;101212.59;5106252;28;19938;-53
2023/07/16 12:16:48;;;;;;;;;;;;;;;39.54;30.71;101209.34;5094753;28;19928;-55
2023/07/16 12:19:13;;;;;;;;;;;;;;;36.78;33.40;101204.63;5094300;28;19990;-52
2023/07/16 12:21:38;;;;;;;;;;;;;;;37.08;33.56;101204.03;5094735;28;19943;-50
2023/07/16 12:24:05;;;;;;;;;;;;;;;37.69;32.95;101198.69;5101180;28;19983;-50
2023/07/16 12:26:30;;;;;;;;;;;;;;;38.57;32.00;101217.53;5094439;28;19939;-50
2023/07/16 12:28:56;;;;;;;;;;;;;;;35.72;34.41;101212.63;5094597;28;19916;-50